Long Grove, Illinois
Current Conditions -  °F | °C
As of 9:59 AM on Monday 24 Nov 2014 (Local Time) from KPWK Reporting Station
Light Rain Light Rain  
Wind Chill: -1°   Ceiling: 1200
Heat Index:   Visibility: 5mi
Dew Point:   Wind: 14mph
Humidity: 89%   Direction: 260°W
Pressure: 29.2"   Gusts: 26mph
Location:  42.18°N, 88°W
Report Text: KPWK 241559Z 26012G23KT 5SM -RA BR BKN012 OVC031 03/02 A2920 RMK AO2 P0002 T00330017
Loading
Personal Weather Stations






























Interactive Weather Map New forecast layout! Learn more

10-Day Weather Forecast

Advertisements
Track Severe Weather on mobile